sensor_id;sensor_type;location;lat;lon;timestamp;P1;durP1;ratioP1;P2;durP2;ratioP2
32196;SDS011;18697;42.770;23.400;2023-07-31T00:00:24;2.70;;;2.35;;
32196;SDS011;18697;42.770;23.400;2023-07-31T00:02:49;2.30;;;2.10;;
32196;SDS011;18697;42.770;23.400;2023-07-31T00:05:16;3.45;;;2.30;;
32196;SDS011;18697;42.770;23.400;2023-07-31T00:07:41;2.40;;;2.20;;
32196;SDS011;18697;42.770;23.400;2023-07-31T00:10:06;2.67;;;2.03;;
32196;SDS011;18697;42.770;23.400;2023-07-31T00:12:32;3.80;;;2.65;;
32196;SDS011;18697;42.770;23.400;2023-07-31T00:14:58;2.22;;;2.03;;
32196;SDS011;18697;42.770;23.400;2023-07-31T00:17:23;2.50;;;2.30;;
32196;SDS011;18697;42.770;23.400;2023-07-31T00:19:48;2.17;;;2.03;;
32196;SDS011;18697;42.770;23.400;2023-07-31T00:22:15;2.47;;;2.13;;
32196;SDS011;18697;42.770;23.400;2023-07-31T00:24:41;2.95;;;2.38;;
32196;SDS011;18697;42.770;23.400;2023-07-31T00:27:06;3.03;;;2.72;;
32196;SDS011;18697;42.770;23.400;2023-07-31T00:29:32;6.20;;;2.35;;
32196;SDS011;18697;42.770;23.400;2023-07-31T00:31:57;2.72;;;2.53;;
32196;SDS011;18697;42.770;23.400;2023-07-31T00:34:22;2.78;;;2.40;;
32196;SDS011;18697;42.770;23.400;2023-07-31T00:36:48;4.15;;;2.33;;
32196;SDS011;18697;42.770;23.400;2023-07-31T00:39:13;2.72;;;2.53;;
32196;SDS011;18697;42.770;23.400;2023-07-31T00:41:38;2.28;;;2.17;;
32196;SDS011;18697;42.770;23.400;2023-07-31T00:44:04;2.45;;;2.25;;
32196;SDS011;18697;42.770;23.400;2023-07-31T00:46:29;2.50;;;2.30;;
32196;SDS011;18697;42.770;23.400;2023-07-31T00:48:55;3.60;;;2.55;;
32196;SDS011;18697;42.770;23.400;2023-07-31T00:51:21;2.50;;;2.35;;
32196;SDS011;18697;42.770;23.400;2023-07-31T00:53:46;6.10;;;2.83;;
32196;SDS011;18697;42.770;23.400;2023-07-31T00:56:12;2.90;;;2.70;;
32196;SDS011;18697;42.770;23.400;2023-07-31T00:58:38;4.18;;;2.90;;
32196;SDS011;18697;42.770;23.400;2023-07-31T01:01:04;3.92;;;2.92;;
32196;SDS011;18697;42.770;23.400;2023-07-31T01:03:30;2.92;;;2.28;;
32196;SDS011;18697;42.770;23.400;2023-07-31T01:08:44;3.38;;;3.03;;
32196;SDS011;18697;42.770;23.400;2023-07-31T01:11:19;3.00;;;2.70;;
32196;SDS011;18697;42.770;23.400;2023-07-31T01:13:52;3.78;;;2.90;;
32196;SDS011;18697;42.770;23.400;2023-07-31T01:16:18;3.33;;;3.03;;
32196;SDS011;18697;42.770;23.400;2023-07-31T01:18:44;3.42;;;3.13;;
32196;SDS011;18697;42.770;23.400;2023-07-31T01:21:21;3.67;;;2.97;;
32196;SDS011;18697;42.770;23.400;2023-07-31T01:24:08;3.70;;;2.97;;
32196;SDS011;18697;42.770;23.400;2023-07-31T01:26:49;3.47;;;3.08;;
32196;SDS011;18697;42.770;23.400;2023-07-31T01:29:23;2.90;;;2.70;;
32196;SDS011;18697;42.770;23.400;2023-07-31T01:31:57;3.15;;;2.92;;
32196;SDS011;18697;42.770;23.400;2023-07-31T01:34:26;3.58;;;3.28;;
32196;SDS011;18697;42.770;23.400;2023-07-31T01:36:53;4.15;;;2.75;;
32196;SDS011;18697;42.770;23.400;2023-07-31T01:39:19;3.60;;;3.05;;
32196;SDS011;18697;42.770;23.400;2023-07-31T01:41:45;4.13;;;3.72;;
32196;SDS011;18697;42.770;23.400;2023-07-31T01:44:11;3.63;;;3.33;;
32196;SDS011;18697;42.770;23.400;2023-07-31T01:46:36;3.00;;;2.80;;
32196;SDS011;18697;42.770;23.400;2023-07-31T01:49:02;3.17;;;2.80;;
32196;SDS011;18697;42.770;23.400;2023-07-31T01:51:27;3.75;;;3.35;;
32196;SDS011;18697;42.770;23.400;2023-07-31T01:53:53;3.75;;;2.70;;
32196;SDS011;18697;42.770;23.400;2023-07-31T01:56:18;3.38;;;2.63;;
32196;SDS011;18697;42.770;23.400;2023-07-31T01:58:43;3.58;;;3.28;;
32196;SDS011;18697;42.770;23.400;2023-07-31T02:01:09;3.63;;;3.33;;
32196;SDS011;18697;42.770;23.400;2023-07-31T02:03:34;2.85;;;2.65;;
32196;SDS011;18697;42.770;23.400;2023-07-31T02:06:00;4.78;;;3.80;;
32196;SDS011;18697;42.770;23.400;2023-07-31T02:08:25;4.18;;;3.38;;
32196;SDS011;18697;42.770;23.400;2023-07-31T02:10:51;4.55;;;3.33;;
32196;SDS011;18697;42.770;23.400;2023-07-31T02:13:17;4.35;;;3.58;;
32196;SDS011;18697;42.770;23.400;2023-07-31T02:15:42;3.45;;;2.58;;
32196;SDS011;18697;42.770;23.400;2023-07-31T02:18:07;3.90;;;3.30;;
32196;SDS011;18697;42.770;23.400;2023-07-31T02:20:33;3.90;;;3.50;;
32196;SDS011;18697;42.770;23.400;2023-07-31T02:23:00;4.00;;;2.97;;
32196;SDS011;18697;42.770;23.400;2023-07-31T02:25:25;3.95;;;2.85;;
32196;SDS011;18697;42.770;23.400;2023-07-31T02:27:50;4.32;;;3.20;;
32196;SDS011;18697;42.770;23.400;2023-07-31T02:30:16;5.65;;;3.88;;
32196;SDS011;18697;42.770;23.400;2023-07-31T02:32:41;4.07;;;3.30;;
32196;SDS011;18697;42.770;23.400;2023-07-31T02:35:07;4.75;;;3.67;;
32196;SDS011;18697;42.770;23.400;2023-07-31T02:37:33;4.65;;;3.95;;
32196;SDS011;18697;42.770;23.400;2023-07-31T02:39:59;5.60;;;4.30;;
32196;SDS011;18697;42.770;23.400;2023-07-31T02:42:24;6.30;;;4.90;;
32196;SDS011;18697;42.770;23.400;2023-07-31T02:44:50;5.97;;;5.40;;
32196;SDS011;18697;42.770;23.400;2023-07-31T02:47:20;3.60;;;3.30;;
32196;SDS011;18697;42.770;23.400;2023-07-31T02:49:46;4.60;;;3.85;;
32196;SDS011;18697;42.770;23.400;2023-07-31T02:52:11;4.50;;;4.10;;
32196;SDS011;18697;42.770;23.400;2023-07-31T02:54:36;3.90;;;3.33;;
32196;SDS011;18697;42.770;23.400;2023-07-31T02:57:02;3.40;;;3.10;;
32196;SDS011;18697;42.770;23.400;2023-07-31T02:59:28;4.57;;;3.08;;
32196;SDS011;18697;42.770;23.400;2023-07-31T03:01:53;3.47;;;3.08;;
32196;SDS011;18697;42.770;23.400;2023-07-31T03:04:19;5.88;;;4.25;;
32196;SDS011;18697;42.770;23.400;2023-07-31T03:06:44;4.03;;;3.35;;
32196;SDS011;18697;42.770;23.400;2023-07-31T03:09:10;3.90;;;3.53;;
32196;SDS011;18697;42.770;23.400;2023-07-31T03:11:35;3.45;;;3.15;;
32196;SDS011;18697;42.770;23.400;2023-07-31T03:14:00;4.00;;;3.60;;
32196;SDS011;18697;42.770;23.400;2023-07-31T03:16:26;3.90;;;3.45;;
32196;SDS011;18697;42.770;23.400;2023-07-31T03:18:51;3.72;;;3.40;;
32196;SDS011;18697;42.770;23.400;2023-07-31T03:21:16;3.30;;;3.10;;
32196;SDS011;18697;42.770;23.400;2023-07-31T03:23:42;6.82;;;4.18;;
32196;SDS011;18697;42.770;23.400;2023-07-31T03:26:08;4.57;;;4.10;;
32196;SDS011;18697;42.770;23.400;2023-07-31T03:28:34;6.28;;;4.60;;
32196;SDS011;18697;42.770;23.400;2023-07-31T03:30:59;5.20;;;2.80;;
32196;SDS011;18697;42.770;23.400;2023-07-31T03:33:25;3.83;;;3.25;;
32196;SDS011;18697;42.770;23.400;2023-07-31T03:35:51;4.60;;;4.00;;
32196;SDS011;18697;42.770;23.400;2023-07-31T03:38:16;3.83;;;3.53;;
32196;SDS011;18697;42.770;23.400;2023-07-31T03:40:41;4.15;;;3.78;;
32196;SDS011;18697;42.770;23.400;2023-07-31T03:43:07;4.20;;;3.80;;
32196;SDS011;18697;42.770;23.400;2023-07-31T03:45:32;4.32;;;3.92;;
32196;SDS011;18697;42.770;23.400;2023-07-31T03:47:58;4.05;;;3.67;;
32196;SDS011;18697;42.770;23.400;2023-07-31T03:50:23;5.07;;;4.28;;
32196;SDS011;18697;42.770;23.400;2023-07-31T03:52:50;10.63;;;5.47;;
32196;SDS011;18697;42.770;23.400;2023-07-31T03:55:15;7.95;;;4.38;;
32196;SDS011;18697;42.770;23.400;2023-07-31T03:57:41;5.50;;;4.25;;
32196;SDS011;18697;42.770;23.400;2023-07-31T04:00:06;11.20;;;4.72;;
32196;SDS011;18697;42.770;23.400;2023-07-31T04:02:32;5.40;;;4.50;;
32196;SDS011;18697;42.770;23.400;2023-07-31T04:04:58;5.53;;;5.03;;
32196;SDS011;18697;42.770;23.400;2023-07-31T04:07:23;5.45;;;4.95;;
32196;SDS011;18697;42.770;23.400;2023-07-31T04:09:48;5.15;;;4.65;;
32196;SDS011;18697;42.770;23.400;2023-07-31T04:12:14;9.45;;;5.38;;
32196;SDS011;18697;42.770;23.400;2023-07-31T04:14:39;6.05;;;5.22;;
32196;SDS011;18697;42.770;23.400;2023-07-31T04:17:05;5.72;;;5.13;;
32196;SDS011;18697;42.770;23.400;2023-07-31T04:19:30;8.85;;;5.70;;
32196;SDS011;18697;42.770;23.400;2023-07-31T04:21:55;6.30;;;5.18;;
32196;SDS011;18697;42.770;23.400;2023-07-31T04:24:21;6.85;;;6.15;;
32196;SDS011;18697;42.770;23.400;2023-07-31T04:26:52;6.00;;;5.40;;
32196;SDS011;18697;42.770;23.400;2023-07-31T04:29:18;7.25;;;5.80;;
32196;SDS011;18697;42.770;23.400;2023-07-31T04:31:43;6.10;;;5.50;;
32196;SDS011;18697;42.770;23.400;2023-07-31T04:34:09;6.00;;;5.40;;
32196;SDS011;18697;42.770;23.400;2023-07-31T04:36:34;5.60;;;5.00;;
32196;SDS011;18697;42.770;23.400;2023-07-31T04:39:00;6.38;;;5.78;;
32196;SDS011;18697;42.770;23.400;2023-07-31T04:41:26;6.05;;;5.55;;
32196;SDS011;18697;42.770;23.400;2023-07-31T04:43:51;7.90;;;6.97;;
32196;SDS011;18697;42.770;23.400;2023-07-31T04:46:17;11.27;;;7.90;;
32196;SDS011;18697;42.770;23.400;2023-07-31T04:48:42;10.88;;;9.68;;
32196;SDS011;18697;42.770;23.400;2023-07-31T04:51:08;10.48;;;9.38;;
32196;SDS011;18697;42.770;23.400;2023-07-31T04:53:34;15.07;;;10.85;;
32196;SDS011;18697;42.770;23.400;2023-07-31T04:56:00;14.15;;;12.63;;
32196;SDS011;18697;42.770;23.400;2023-07-31T04:58:25;12.95;;;11.38;;
32196;SDS011;18697;42.770;23.400;2023-07-31T05:00:51;13.88;;;11.88;;
32196;SDS011;18697;42.770;23.400;2023-07-31T05:03:16;16.75;;;14.85;;
32196;SDS011;18697;42.770;23.400;2023-07-31T05:05:41;14.80;;;12.82;;
32196;SDS011;18697;42.770;23.400;2023-07-31T05:08:07;16.63;;;14.82;;
32196;SDS011;18697;42.770;23.400;2023-07-31T05:10:32;16.02;;;14.30;;
32196;SDS011;18697;42.770;23.400;2023-07-31T05:12:57;17.73;;;14.68;;
32196;SDS011;18697;42.770;23.400;2023-07-31T05:15:23;19.20;;;15.02;;
32196;SDS011;18697;42.770;23.400;2023-07-31T05:17:48;18.08;;;15.38;;
32196;SDS011;18697;42.770;23.400;2023-07-31T05:20:14;18.25;;;16.10;;
32196;SDS011;18697;42.770;23.400;2023-07-31T05:22:40;19.52;;;15.13;;
32196;SDS011;18697;42.770;23.400;2023-07-31T05:25:05;17.83;;;15.57;;
32196;SDS011;18697;42.770;23.400;2023-07-31T05:27:31;16.52;;;14.52;;
32196;SDS011;18697;42.770;23.400;2023-07-31T05:29:57;19.10;;;15.60;;
32196;SDS011;18697;42.770;23.400;2023-07-31T05:32:23;18.45;;;15.43;;
32196;SDS011;18697;42.770;23.400;2023-07-31T05:34:50;16.73;;;14.82;;
32196;SDS011;18697;42.770;23.400;2023-07-31T05:37:17;16.33;;;14.35;;
32196;SDS011;18697;42.770;23.400;2023-07-31T05:39:42;17.17;;;14.27;;
32196;SDS011;18697;42.770;23.400;2023-07-31T05:42:08;16.50;;;14.35;;
32196;SDS011;18697;42.770;23.400;2023-07-31T05:44:33;14.38;;;12.88;;
32196;SDS011;18697;42.770;23.400;2023-07-31T05:46:59;18.17;;;13.85;;
32196;SDS011;18697;42.770;23.400;2023-07-31T05:49:24;19.80;;;14.48;;
32196;SDS011;18697;42.770;23.400;2023-07-31T05:51:50;15.40;;;12.45;;
32196;SDS011;18697;42.770;23.400;2023-07-31T05:54:15;13.57;;;11.68;;
32196;SDS011;18697;42.770;23.400;2023-07-31T05:56:40;12.18;;;10.98;;
32196;SDS011;18697;42.770;23.400;2023-07-31T05:59:06;12.52;;;11.23;;
32196;SDS011;18697;42.770;23.400;2023-07-31T06:01:31;12.02;;;10.82;;
32196;SDS011;18697;42.770;23.400;2023-07-31T06:03:57;15.80;;;11.13;;
32196;SDS011;18697;42.770;23.400;2023-07-31T06:06:22;13.38;;;9.93;;
32196;SDS011;18697;42.770;23.400;2023-07-31T06:08:47;11.10;;;9.65;;
32196;SDS011;18697;42.770;23.400;2023-07-31T06:11:13;11.57;;;9.20;;
32196;SDS011;18697;42.770;23.400;2023-07-31T06:13:38;11.93;;;10.07;;
32196;SDS011;18697;42.770;23.400;2023-07-31T06:16:04;10.48;;;9.38;;
32196;SDS011;18697;42.770;23.400;2023-07-31T06:18:33;10.18;;;8.75;;
32196;SDS011;18697;42.770;23.400;2023-07-31T06:20:59;10.02;;;9.02;;
32196;SDS011;18697;42.770;23.400;2023-07-31T06:23:24;9.90;;;8.90;;
32196;SDS011;18697;42.770;23.400;2023-07-31T06:25:50;17.77;;;8.32;;
32196;SDS011;18697;42.770;23.400;2023-07-31T06:28:15;9.43;;;8.52;;
32196;SDS011;18697;42.770;23.400;2023-07-31T06:30:40;9.63;;;8.20;;
32196;SDS011;18697;42.770;23.400;2023-07-31T06:33:06;8.93;;;8.05;;
32196;SDS011;18697;42.770;23.400;2023-07-31T06:35:31;8.65;;;7.85;;
32196;SDS011;18697;42.770;23.400;2023-07-31T06:37:57;7.78;;;7.07;;
32196;SDS011;18697;42.770;23.400;2023-07-31T06:40:22;8.80;;;7.82;;
32196;SDS011;18697;42.770;23.400;2023-07-31T06:42:48;9.00;;;7.47;;
32196;SDS011;18697;42.770;23.400;2023-07-31T06:45:13;8.07;;;7.28;;
32196;SDS011;18697;42.770;23.400;2023-07-31T06:47:38;7.05;;;6.40;;
32196;SDS011;18697;42.770;23.400;2023-07-31T06:50:04;8.82;;;6.20;;
32196;SDS011;18697;42.770;23.400;2023-07-31T06:52:30;8.77;;;6.75;;
32196;SDS011;18697;42.770;23.400;2023-07-31T06:57:44;6.07;;;5.47;;
32196;SDS011;18697;42.770;23.400;2023-07-31T07:00:10;8.55;;;6.78;;
32196;SDS011;18697;42.770;23.400;2023-07-31T07:02:35;6.68;;;5.40;;
32196;SDS011;18697;42.770;23.400;2023-07-31T07:05:01;6.88;;;6.18;;
32196;SDS011;18697;42.770;23.400;2023-07-31T07:07:26;6.65;;;5.70;;
32196;SDS011;18697;42.770;23.400;2023-07-31T07:09:51;11.93;;;6.20;;
32196;SDS011;18697;42.770;23.400;2023-07-31T07:12:17;7.25;;;6.38;;
32196;SDS011;18697;42.770;23.400;2023-07-31T07:14:42;9.20;;;6.70;;
32196;SDS011;18697;42.770;23.400;2023-07-31T07:17:08;7.18;;;6.22;;
32196;SDS011;18697;42.770;23.400;2023-07-31T07:19:34;8.23;;;5.65;;
32196;SDS011;18697;42.770;23.400;2023-07-31T07:21:59;7.60;;;5.88;;
32196;SDS011;18697;42.770;23.400;2023-07-31T07:24:26;6.50;;;5.80;;
32196;SDS011;18697;42.770;23.400;2023-07-31T07:26:52;6.22;;;5.07;;
32196;SDS011;18697;42.770;23.400;2023-07-31T07:29:17;6.90;;;5.57;;
32196;SDS011;18697;42.770;23.400;2023-07-31T07:31:43;6.15;;;5.38;;
32196;SDS011;18697;42.770;23.400;2023-07-31T07:34:08;7.63;;;4.75;;
32196;SDS011;18697;42.770;23.400;2023-07-31T07:36:33;7.82;;;4.82;;
32196;SDS011;18697;42.770;23.400;2023-07-31T07:38:59;6.65;;;6.00;;
32196;SDS011;18697;42.770;23.400;2023-07-31T07:41:24;6.22;;;5.05;;
32196;SDS011;18697;42.770;23.400;2023-07-31T07:43:49;6.88;;;5.00;;
32196;SDS011;18697;42.770;23.400;2023-07-31T07:46:16;6.55;;;4.72;;
32196;SDS011;18697;42.770;23.400;2023-07-31T07:48:41;5.00;;;4.60;;
32196;SDS011;18697;42.770;23.400;2023-07-31T07:51:07;5.38;;;4.60;;
32196;SDS011;18697;42.770;23.400;2023-07-31T07:53:32;5.00;;;4.50;;
32196;SDS011;18697;42.770;23.400;2023-07-31T07:55:57;5.72;;;4.82;;
32196;SDS011;18697;42.770;23.400;2023-07-31T07:58:23;5.25;;;4.03;;
32196;SDS011;18697;42.770;23.400;2023-07-31T08:00:51;4.38;;;3.97;;
32196;SDS011;18697;42.770;23.400;2023-07-31T08:03:17;5.35;;;4.13;;
32196;SDS011;18697;42.770;23.400;2023-07-31T08:05:43;6.85;;;3.58;;
32196;SDS011;18697;42.770;23.400;2023-07-31T08:08:13;4.57;;;3.97;;
32196;SDS011;18697;42.770;23.400;2023-07-31T08:10:42;4.85;;;4.40;;
32196;SDS011;18697;42.770;23.400;2023-07-31T08:13:07;4.35;;;3.97;;
32196;SDS011;18697;42.770;23.400;2023-07-31T08:15:33;6.47;;;3.72;;
32196;SDS011;18697;42.770;23.400;2023-07-31T08:17:58;6.07;;;3.58;;
32196;SDS011;18697;42.770;23.400;2023-07-31T08:20:23;4.28;;;3.30;;
32196;SDS011;18697;42.770;23.400;2023-07-31T08:22:49;4.35;;;3.55;;
32196;SDS011;18697;42.770;23.400;2023-07-31T08:25:14;3.85;;;3.55;;
32196;SDS011;18697;42.770;23.400;2023-07-31T08:27:43;4.18;;;3.78;;
32196;SDS011;18697;42.770;23.400;2023-07-31T08:30:08;5.20;;;3.50;;
32196;SDS011;18697;42.770;23.400;2023-07-31T08:32:34;3.85;;;3.53;;
32196;SDS011;18697;42.770;23.400;2023-07-31T08:34:59;6.78;;;4.00;;
32196;SDS011;18697;42.770;23.400;2023-07-31T08:37:25;3.25;;;3.00;;
32196;SDS011;18697;42.770;23.400;2023-07-31T08:39:50;3.58;;;3.28;;
32196;SDS011;18697;42.770;23.400;2023-07-31T08:42:16;5.05;;;3.70;;
32196;SDS011;18697;42.770;23.400;2023-07-31T08:44:41;4.82;;;3.40;;
32196;SDS011;18697;42.770;23.400;2023-07-31T08:47:08;4.13;;;3.72;;
32196;SDS011;18697;42.770;23.400;2023-07-31T08:49:34;8.07;;;3.47;;
32196;SDS011;18697;42.770;23.400;2023-07-31T08:52:01;3.53;;;2.92;;
32196;SDS011;18697;42.770;23.400;2023-07-31T08:54:26;3.30;;;3.00;;
32196;SDS011;18697;42.770;23.400;2023-07-31T08:56:55;3.65;;;3.35;;
32196;SDS011;18697;42.770;23.400;2023-07-31T08:59:22;4.90;;;3.40;;
32196;SDS011;18697;42.770;23.400;2023-07-31T09:01:49;3.00;;;2.80;;
32196;SDS011;18697;42.770;23.400;2023-07-31T09:04:18;3.67;;;3.15;;
32196;SDS011;18697;42.770;23.400;2023-07-31T09:06:45;3.15;;;2.85;;
32196;SDS011;18697;42.770;23.400;2023-07-31T09:09:13;3.50;;;3.20;;
32196;SDS011;18697;42.770;23.400;2023-07-31T09:11:38;6.05;;;3.28;;
32196;SDS011;18697;42.770;23.400;2023-07-31T09:14:04;3.33;;;3.03;;
32196;SDS011;18697;42.770;23.400;2023-07-31T09:16:33;3.33;;;3.03;;
32196;SDS011;18697;42.770;23.400;2023-07-31T09:18:59;3.67;;;2.92;;
32196;SDS011;18697;42.770;23.400;2023-07-31T09:21:27;3.28;;;2.97;;
32196;SDS011;18697;42.770;23.400;2023-07-31T09:23:53;6.10;;;3.00;;
32196;SDS011;18697;42.770;23.400;2023-07-31T09:26:31;3.10;;;2.67;;
32196;SDS011;18697;42.770;23.400;2023-07-31T09:28:59;6.18;;;2.83;;
32196;SDS011;18697;42.770;23.400;2023-07-31T09:31:32;3.65;;;3.35;;
32196;SDS011;18697;42.770;23.400;2023-07-31T09:34:07;3.80;;;2.80;;
32196;SDS011;18697;42.770;23.400;2023-07-31T09:36:39;4.72;;;2.95;;
32196;SDS011;18697;42.770;23.400;2023-07-31T09:39:05;4.82;;;3.25;;
32196;SDS011;18697;42.770;23.400;2023-07-31T09:41:38;4.47;;;2.50;;
32196;SDS011;18697;42.770;23.400;2023-07-31T09:44:13;3.97;;;3.25;;
32196;SDS011;18697;42.770;23.400;2023-07-31T09:46:38;4.50;;;2.97;;
32196;SDS011;18697;42.770;23.400;2023-07-31T09:49:08;2.58;;;2.38;;
32196;SDS011;18697;42.770;23.400;2023-07-31T09:51:34;2.88;;;2.22;;
32196;SDS011;18697;42.770;23.400;2023-07-31T09:54:03;2.40;;;2.20;;
32196;SDS011;18697;42.770;23.400;2023-07-31T09:56:36;2.20;;;2.00;;
32196;SDS011;18697;42.770;23.400;2023-07-31T09:59:03;2.00;;;1.85;;
32196;SDS011;18697;42.770;23.400;2023-07-31T10:01:30;1.75;;;1.52;;
32196;SDS011;18697;42.770;23.400;2023-07-31T10:03:56;1.80;;;1.60;;
32196;SDS011;18697;42.770;23.400;2023-07-31T10:06:23;6.82;;;2.75;;
32196;SDS011;18697;42.770;23.400;2023-07-31T10:08:50;1.98;;;1.85;;
32196;SDS011;18697;42.770;23.400;2023-07-31T10:11:17;1.80;;;1.70;;
32196;SDS011;18697;42.770;23.400;2023-07-31T10:13:44;11.13;;;2.40;;
32196;SDS011;18697;42.770;23.400;2023-07-31T10:16:10;4.85;;;2.30;;
32196;SDS011;18697;42.770;23.400;2023-07-31T10:18:37;2.35;;;2.15;;
32196;SDS011;18697;42.770;23.400;2023-07-31T10:21:04;1.90;;;1.77;;
32196;SDS011;18697;42.770;23.400;2023-07-31T10:23:31;3.47;;;1.80;;
32196;SDS011;18697;42.770;23.400;2023-07-31T10:25:56;1.73;;;1.63;;
32196;SDS011;18697;42.770;23.400;2023-07-31T10:28:23;2.85;;;1.60;;
32196;SDS011;18697;42.770;23.400;2023-07-31T10:30:50;6.00;;;1.70;;
32196;SDS011;18697;42.770;23.400;2023-07-31T10:33:16;2.50;;;2.28;;
32196;SDS011;18697;42.770;23.400;2023-07-31T10:35:43;2.90;;;1.75;;
32196;SDS011;18697;42.770;23.400;2023-07-31T10:38:11;2.10;;;1.90;;
32196;SDS011;18697;42.770;23.400;2023-07-31T10:40:37;2.28;;;1.90;;
32196;SDS011;18697;42.770;23.400;2023-07-31T10:43:03;7.68;;;2.22;;
32196;SDS011;18697;42.770;23.400;2023-07-31T10:45:35;2.10;;;1.90;;
32196;SDS011;18697;42.770;23.400;2023-07-31T10:50:54;4.43;;;1.77;;
32196;SDS011;18697;42.770;23.400;2023-07-31T10:53:24;3.10;;;2.05;;
32196;SDS011;18697;42.770;23.400;2023-07-31T10:55:51;1.80;;;1.70;;
32196;SDS011;18697;42.770;23.400;2023-07-31T10:58:18;2.05;;;1.88;;
32196;SDS011;18697;42.770;23.400;2023-07-31T11:00:45;2.65;;;1.60;;
32196;SDS011;18697;42.770;23.400;2023-07-31T11:03:15;1.50;;;1.40;;
32196;SDS011;18697;42.770;23.400;2023-07-31T11:06:01;1.73;;;1.63;;
32196;SDS011;18697;42.770;23.400;2023-07-31T11:08:31;4.28;;;2.60;;
32196;SDS011;18697;42.770;23.400;2023-07-31T11:13:33;1.95;;;1.85;;
32196;SDS011;18697;42.770;23.400;2023-07-31T11:16:10;4.72;;;1.80;;
32196;SDS011;18697;42.770;23.400;2023-07-31T11:18:39;1.60;;;1.50;;
32196;SDS011;18697;42.770;23.400;2023-07-31T11:21:06;1.67;;;1.58;;
32196;SDS011;18697;42.770;23.400;2023-07-31T11:23:31;1.77;;;1.63;;
32196;SDS011;18697;42.770;23.400;2023-07-31T11:26:00;1.50;;;1.40;;
32196;SDS011;18697;42.770;23.400;2023-07-31T11:28:26;1.92;;;1.52;;
32196;SDS011;18697;42.770;23.400;2023-07-31T11:30:57;1.83;;;1.33;;
32196;SDS011;18697;42.770;23.400;2023-07-31T11:33:22;1.83;;;1.73;;
32196;SDS011;18697;42.770;23.400;2023-07-31T11:35:48;2.05;;;1.60;;
32196;SDS011;18697;42.770;23.400;2023-07-31T11:40:57;2.17;;;1.77;;
32196;SDS011;18697;42.770;23.400;2023-07-31T11:43:23;1.80;;;1.70;;
32196;SDS011;18697;42.770;23.400;2023-07-31T11:45:50;1.67;;;1.58;;
32196;SDS011;18697;42.770;23.400;2023-07-31T11:50:45;15.75;;;2.47;;
32196;SDS011;18697;42.770;23.400;2023-07-31T11:53:12;4.57;;;2.15;;
32196;SDS011;18697;42.770;23.400;2023-07-31T11:55:38;1.88;;;1.67;;
32196;SDS011;18697;42.770;23.400;2023-07-31T11:58:04;1.92;;;1.60;;
32196;SDS011;18697;42.770;23.400;2023-07-31T12:00:30;2.35;;;1.75;;
32196;SDS011;18697;42.770;23.400;2023-07-31T12:02:56;2.15;;;1.60;;
32196;SDS011;18697;42.770;23.400;2023-07-31T12:05:21;2.15;;;1.70;;
32196;SDS011;18697;42.770;23.400;2023-07-31T12:07:52;8.15;;;1.70;;
32196;SDS011;18697;42.770;23.400;2023-07-31T12:10:23;2.50;;;2.30;;
32196;SDS011;18697;42.770;23.400;2023-07-31T12:12:59;3.08;;;2.00;;
32196;SDS011;18697;42.770;23.400;2023-07-31T12:15:29;4.20;;;2.80;;
32196;SDS011;18697;42.770;23.400;2023-07-31T12:17:57;42.72;;;35.70;;
32196;SDS011;18697;42.770;23.400;2023-07-31T12:20:23;6.07;;;4.32;;
32196;SDS011;18697;42.770;23.400;2023-07-31T12:22:48;6.75;;;4.80;;
32196;SDS011;18697;42.770;23.400;2023-07-31T12:25:17;5.32;;;4.82;;
32196;SDS011;18697;42.770;23.400;2023-07-31T12:27:45;5.57;;;4.68;;
32196;SDS011;18697;42.770;23.400;2023-07-31T12:30:28;4.85;;;3.80;;
32196;SDS011;18697;42.770;23.400;2023-07-31T12:33:02;2.67;;;2.47;;
32196;SDS011;18697;42.770;23.400;2023-07-31T12:35:35;1.98;;;1.75;;
32196;SDS011;18697;42.770;23.400;2023-07-31T12:38:05;2.70;;;2.17;;
32196;SDS011;18697;42.770;23.400;2023-07-31T12:40:31;4.40;;;3.00;;
32196;SDS011;18697;42.770;23.400;2023-07-31T12:42:56;3.40;;;2.00;;
32196;SDS011;18697;42.770;23.400;2023-07-31T12:45:22;2.38;;;2.13;;
32196;SDS011;18697;42.770;23.400;2023-07-31T12:47:48;4.65;;;2.60;;
32196;SDS011;18697;42.770;23.400;2023-07-31T12:50:13;5.18;;;2.00;;
32196;SDS011;18697;42.770;23.400;2023-07-31T12:52:39;2.92;;;1.92;;
32196;SDS011;18697;42.770;23.400;2023-07-31T12:55:04;3.33;;;2.05;;
32196;SDS011;18697;42.770;23.400;2023-07-31T12:57:30;1.77;;;1.67;;
32196;SDS011;18697;42.770;23.400;2023-07-31T12:59:55;2.00;;;1.90;;
32196;SDS011;18697;42.770;23.400;2023-07-31T13:02:21;2.53;;;1.92;;
32196;SDS011;18697;42.770;23.400;2023-07-31T13:04:47;2.20;;;2.00;;
32196;SDS011;18697;42.770;23.400;2023-07-31T13:07:14;2.53;;;2.20;;
32196;SDS011;18697;42.770;23.400;2023-07-31T13:09:39;2.85;;;1.95;;
32196;SDS011;18697;42.770;23.400;2023-07-31T13:12:04;4.65;;;2.20;;
32196;SDS011;18697;42.770;23.400;2023-07-31T13:14:30;3.13;;;2.03;;
32196;SDS011;18697;42.770;23.400;2023-07-31T13:16:55;2.15;;;1.67;;
32196;SDS011;18697;42.770;23.400;2023-07-31T13:19:21;2.83;;;2.30;;
32196;SDS011;18697;42.770;23.400;2023-07-31T13:21:46;3.97;;;2.88;;
32196;SDS011;18697;42.770;23.400;2023-07-31T13:24:11;3.03;;;2.72;;
32196;SDS011;18697;42.770;23.400;2023-07-31T13:26:37;6.10;;;3.10;;
32196;SDS011;18697;42.770;23.400;2023-07-31T13:29:02;3.20;;;2.90;;
32196;SDS011;18697;42.770;23.400;2023-07-31T13:31:28;3.45;;;3.05;;
32196;SDS011;18697;42.770;23.400;2023-07-31T13:33:53;3.13;;;2.83;;
32196;SDS011;18697;42.770;23.400;2023-07-31T13:36:18;4.47;;;3.10;;
32196;SDS011;18697;42.770;23.400;2023-07-31T13:38:44;3.20;;;3.00;;
32196;SDS011;18697;42.770;23.400;2023-07-31T13:41:09;5.28;;;3.30;;
32196;SDS011;18697;42.770;23.400;2023-07-31T13:43:34;3.72;;;3.20;;
32196;SDS011;18697;42.770;23.400;2023-07-31T13:46:00;3.30;;;3.10;;
32196;SDS011;18697;42.770;23.400;2023-07-31T13:48:31;3.20;;;3.00;;
32196;SDS011;18697;42.770;23.400;2023-07-31T13:51:00;2.95;;;2.65;;
32196;SDS011;18697;42.770;23.400;2023-07-31T13:53:25;5.15;;;3.35;;
32196;SDS011;18697;42.770;23.400;2023-07-31T13:55:50;4.93;;;3.50;;
32196;SDS011;18697;42.770;23.400;2023-07-31T13:58:16;5.50;;;3.00;;
32196;SDS011;18697;42.770;23.400;2023-07-31T14:00:42;3.45;;;3.15;;
32196;SDS011;18697;42.770;23.400;2023-07-31T14:03:08;3.55;;;3.25;;
32196;SDS011;18697;42.770;23.400;2023-07-31T14:05:33;7.53;;;3.33;;
32196;SDS011;18697;42.770;23.400;2023-07-31T14:07:59;5.38;;;3.22;;
32196;SDS011;18697;42.770;23.400;2023-07-31T14:10:25;22.33;;;4.72;;
32196;SDS011;18697;42.770;23.400;2023-07-31T14:12:50;5.43;;;3.03;;
32196;SDS011;18697;42.770;23.400;2023-07-31T14:15:15;3.80;;;2.90;;
32196;SDS011;18697;42.770;23.400;2023-07-31T14:17:41;6.32;;;3.22;;
32196;SDS011;18697;42.770;23.400;2023-07-31T14:20:06;5.22;;;3.00;;
32196;SDS011;18697;42.770;23.400;2023-07-31T14:22:32;3.72;;;3.40;;
32196;SDS011;18697;42.770;23.400;2023-07-31T14:24:59;4.60;;;3.25;;
32196;SDS011;18697;42.770;23.400;2023-07-31T14:27:25;3.67;;;3.33;;
32196;SDS011;18697;42.770;23.400;2023-07-31T14:29:50;3.33;;;3.03;;
32196;SDS011;18697;42.770;23.400;2023-07-31T14:32:16;3.25;;;2.95;;
32196;SDS011;18697;42.770;23.400;2023-07-31T14:34:41;3.35;;;3.05;;
32196;SDS011;18697;42.770;23.400;2023-07-31T14:37:06;3.22;;;2.88;;
32196;SDS011;18697;42.770;23.400;2023-07-31T14:39:32;3.15;;;2.85;;
32196;SDS011;18697;42.770;23.400;2023-07-31T14:41:57;3.33;;;3.05;;